Wichita Mid Continent Airport Wichita US
ICAO: KICT
IATA: ICT
Category: Large
Scheduled Services: Yes

Elevation: 1333 ft
TransAlt. 18000 ft.

Airport Communications:
APP:32.71
APP:125.5
ATIS:125.15
CLNC DEL:125.7
DEP:126.7
GND:121.9
RDO:122.2
TWR:118.2
UNICOM:122.95

KICT Zoom In..

If you have problems with the map follow the link
https://www.worldairports.se/pages/airport.php?
ICAO=KICT

Runways:

(A) RW 01L length 10301 ft width 150 ft
ILS 109.10 / hdg 13

(B) RW 01R length 7301 ft width 150 ft
ILS 110.30 / hdg 13

(C) RW 14 length 6301 ft width 151 ft
---- / hdg 143

(D) RW 19L length 7301 ft width 150 ft
ILS 111.55 / hdg 193

(E) RW 19R length 10301 ft width 150 ft
ILS 110.50 / hdg 193

(F) RW 32 length 6301 ft width 151 ft
---- / hdg 323

Location; KICT
Day. 14 / Time. 16.53 Zulu
* Altimeter: 29.97
* Temperature: 02° c. 35.6°f.
* Wind from: 020° Speed 12 kn.
Dewpoint: -03° c.
Visibility: 10 Statute Miles.
Clouds: Overcast 1400 ft.

KICT 141653Z 02012KT 10SM OVC014 02/M03 A2997 RMK AO2 SLP157 T00171028


Wind From 020°
Speed 12 kn.

 
 
jpsmedia worldairports.se 2019   terms of use